Pagina principale
METAR-TAF:

METAR-TAF

Aeroporti :

Aeroporto Internazionale di al-Arish

Al-Arish, Egitto

latitudine: 31-05N, longitudine: 033-49E, altezza: 31 m

METAR: mancante

Ora: 09:08 (07:08 UTC)

Previsione

Il bollettino è stato emesso 2 ore e 8 minuti fa, alle 05:00 UTC
Previsione valida dal 27 alle 06 UTC al 28 alle 12 UTC
Vento 8 kt da nord/nord-ovest
Visibilità 10 km o più
nessuna nube inferiore a 1500 m e nessun cumulonembo
Evoluzione graduale
dal 27 alle 16 UTC al 27 alle 18 UTC
Vento 3 kt da direzioni variabili
Evoluzione graduale
dal 28 alle 06 UTC al 28 alle 08 UTC
Vento 7 kt da sud

TAF: HEAR 270500Z 2706/2812 34008KT CAVOK BECMG 2716/2718 VRB03KT BECMG 2806/2808 18007KT

Osservazioni e previsioni meteorologiche di più di 4000 aeroporti (messaggi METAR e TAF).

Le stazioni disponibili sono rappresentate dai dischi gialli e rossi sulla carta.

Puntare il mouse per vedere il nome della stazione.

Clicca sopra per visualizzare le osservazioni e previsioni meteorologiche.

Per cambiare la mappa : fare clic sui pulsanti verdi con una croce nera per ingrandire, il pulsante verde con un trattino per diminuire, o sulla freccia verde per le mappe adiacenti.


METAR-TAF: